sensor_id;sensor_type;location;lat;lon;timestamp;P1;durP1;ratioP1;P2;durP2;ratioP2
47960;SDS011;33721;48.852;9.936;2023-08-30T00:00:41;45.08;;;25.13;;
47960;SDS011;33721;48.852;9.936;2023-08-30T00:03:07;48.47;;;25.13;;
47960;SDS011;33721;48.852;9.936;2023-08-30T00:05:33;47.60;;;25.65;;
47960;SDS011;33721;48.852;9.936;2023-08-30T00:07:59;54.75;;;26.70;;
47960;SDS011;33721;48.852;9.936;2023-08-30T00:10:24;50.00;;;26.40;;
47960;SDS011;33721;48.852;9.936;2023-08-30T00:12:50;52.13;;;26.40;;
47960;SDS011;33721;48.852;9.936;2023-08-30T00:15:16;46.25;;;25.65;;
47960;SDS011;33721;48.852;9.936;2023-08-30T00:17:41;48.55;;;27.30;;
47960;SDS011;33721;48.852;9.936;2023-08-30T00:20:07;47.70;;;26.85;;
47960;SDS011;33721;48.852;9.936;2023-08-30T00:22:34;45.80;;;25.42;;
47960;SDS011;33721;48.852;9.936;2023-08-30T00:24:59;55.13;;;27.58;;
47960;SDS011;33721;48.852;9.936;2023-08-30T00:27:25;52.00;;;27.23;;
47960;SDS011;33721;48.852;9.936;2023-08-30T00:29:51;53.30;;;27.45;;
47960;SDS011;33721;48.852;9.936;2023-08-30T00:32:16;51.60;;;26.67;;
47960;SDS011;33721;48.852;9.936;2023-08-30T00:34:42;47.05;;;26.90;;
47960;SDS011;33721;48.852;9.936;2023-08-30T00:37:08;53.40;;;27.30;;
47960;SDS011;33721;48.852;9.936;2023-08-30T00:39:33;49.47;;;27.63;;
47960;SDS011;33721;48.852;9.936;2023-08-30T00:42:02;52.20;;;26.98;;
47960;SDS011;33721;48.852;9.936;2023-08-30T00:44:31;49.75;;;26.73;;
47960;SDS011;33721;48.852;9.936;2023-08-30T00:46:57;54.28;;;28.10;;
47960;SDS011;33721;48.852;9.936;2023-08-30T00:49:23;50.33;;;26.95;;
47960;SDS011;33721;48.852;9.936;2023-08-30T00:51:49;48.67;;;25.23;;
47960;SDS011;33721;48.852;9.936;2023-08-30T00:54:15;45.13;;;24.60;;
47960;SDS011;33721;48.852;9.936;2023-08-30T00:56:41;43.85;;;24.40;;
47960;SDS011;33721;48.852;9.936;2023-08-30T00:59:06;45.22;;;24.98;;
47960;SDS011;33721;48.852;9.936;2023-08-30T01:01:32;45.63;;;25.15;;
47960;SDS011;33721;48.852;9.936;2023-08-30T01:03:58;47.45;;;25.77;;
47960;SDS011;33721;48.852;9.936;2023-08-30T01:06:23;48.70;;;25.13;;
47960;SDS011;33721;48.852;9.936;2023-08-30T01:08:49;48.95;;;25.70;;
47960;SDS011;33721;48.852;9.936;2023-08-30T01:11:19;45.63;;;25.73;;
47960;SDS011;33721;48.852;9.936;2023-08-30T01:13:53;46.20;;;25.55;;
47960;SDS011;33721;48.852;9.936;2023-08-30T01:16:25;47.50;;;25.67;;
47960;SDS011;33721;48.852;9.936;2023-08-30T01:18:53;46.60;;;25.15;;
47960;SDS011;33721;48.852;9.936;2023-08-30T01:21:25;42.58;;;23.52;;
47960;SDS011;33721;48.852;9.936;2023-08-30T01:23:59;46.47;;;25.20;;
47960;SDS011;33721;48.852;9.936;2023-08-30T01:26:32;42.60;;;23.48;;
47960;SDS011;33721;48.852;9.936;2023-08-30T01:29:16;43.28;;;23.00;;
47960;SDS011;33721;48.852;9.936;2023-08-30T01:31:46;44.13;;;24.25;;
47960;SDS011;33721;48.852;9.936;2023-08-30T01:34:13;48.85;;;24.83;;
47960;SDS011;33721;48.852;9.936;2023-08-30T01:36:40;48.25;;;24.88;;
47960;SDS011;33721;48.852;9.936;2023-08-30T01:39:08;44.50;;;24.48;;
47960;SDS011;33721;48.852;9.936;2023-08-30T01:41:35;44.60;;;24.23;;
47960;SDS011;33721;48.852;9.936;2023-08-30T01:44:02;44.85;;;24.52;;
47960;SDS011;33721;48.852;9.936;2023-08-30T01:46:30;46.38;;;24.15;;
47960;SDS011;33721;48.852;9.936;2023-08-30T01:48:58;47.92;;;24.15;;
47960;SDS011;33721;48.852;9.936;2023-08-30T01:51:24;41.33;;;24.77;;
47960;SDS011;33721;48.852;9.936;2023-08-30T01:53:51;45.03;;;23.52;;
47960;SDS011;33721;48.852;9.936;2023-08-30T01:56:19;45.42;;;24.13;;
47960;SDS011;33721;48.852;9.936;2023-08-30T01:58:44;44.47;;;23.63;;
47960;SDS011;33721;48.852;9.936;2023-08-30T02:01:10;40.55;;;23.63;;
47960;SDS011;33721;48.852;9.936;2023-08-30T02:03:37;36.40;;;22.08;;
47960;SDS011;33721;48.852;9.936;2023-08-30T02:06:13;43.22;;;23.08;;
47960;SDS011;33721;48.852;9.936;2023-08-30T02:08:58;45.10;;;23.98;;
47960;SDS011;33721;48.852;9.936;2023-08-30T02:11:28;42.72;;;24.02;;
47960;SDS011;33721;48.852;9.936;2023-08-30T02:13:58;39.13;;;22.92;;
47960;SDS011;33721;48.852;9.936;2023-08-30T02:16:27;43.50;;;22.85;;
47960;SDS011;33721;48.852;9.936;2023-08-30T02:18:54;38.45;;;21.02;;
47960;SDS011;33721;48.852;9.936;2023-08-30T02:21:20;40.90;;;22.75;;
47960;SDS011;33721;48.852;9.936;2023-08-30T02:23:52;39.60;;;22.00;;
47960;SDS011;33721;48.852;9.936;2023-08-30T02:26:20;41.05;;;22.45;;
47960;SDS011;33721;48.852;9.936;2023-08-30T02:28:46;42.03;;;21.77;;
47960;SDS011;33721;48.852;9.936;2023-08-30T02:31:12;38.83;;;20.63;;
47960;SDS011;33721;48.852;9.936;2023-08-30T02:33:37;37.45;;;20.95;;
47960;SDS011;33721;48.852;9.936;2023-08-30T02:36:04;59.05;;;22.80;;
47960;SDS011;33721;48.852;9.936;2023-08-30T02:38:30;46.15;;;22.58;;
47960;SDS011;33721;48.852;9.936;2023-08-30T02:40:55;565.08;;;30.45;;
47960;SDS011;33721;48.852;9.936;2023-08-30T02:43:21;137.18;;;23.13;;
47960;SDS011;33721;48.852;9.936;2023-08-30T02:45:47;177.27;;;23.15;;
47960;SDS011;33721;48.852;9.936;2023-08-30T02:48:13;55.53;;;20.85;;
47960;SDS011;33721;48.852;9.936;2023-08-30T02:50:39;45.45;;;21.02;;
47960;SDS011;33721;48.852;9.936;2023-08-30T02:53:06;38.47;;;21.13;;
47960;SDS011;33721;48.852;9.936;2023-08-30T02:55:35;43.83;;;23.38;;
47960;SDS011;33721;48.852;9.936;2023-08-30T02:58:01;39.78;;;22.15;;
47960;SDS011;33721;48.852;9.936;2023-08-30T03:00:26;40.47;;;20.98;;
47960;SDS011;33721;48.852;9.936;2023-08-30T03:02:52;36.03;;;20.40;;
47960;SDS011;33721;48.852;9.936;2023-08-30T03:05:18;36.85;;;20.75;;
47960;SDS011;33721;48.852;9.936;2023-08-30T03:07:43;36.05;;;20.23;;
47960;SDS011;33721;48.852;9.936;2023-08-30T03:10:09;35.05;;;19.95;;
47960;SDS011;33721;48.852;9.936;2023-08-30T03:12:36;40.63;;;20.75;;
47960;SDS011;33721;48.852;9.936;2023-08-30T03:15:02;34.25;;;20.30;;
47960;SDS011;33721;48.852;9.936;2023-08-30T03:17:29;35.70;;;20.05;;
47960;SDS011;33721;48.852;9.936;2023-08-30T03:19:55;33.70;;;19.35;;
47960;SDS011;33721;48.852;9.936;2023-08-30T03:22:20;36.40;;;20.83;;
47960;SDS011;33721;48.852;9.936;2023-08-30T03:24:46;50.65;;;19.58;;
47960;SDS011;33721;48.852;9.936;2023-08-30T03:27:12;34.97;;;19.77;;
47960;SDS011;33721;48.852;9.936;2023-08-30T03:29:38;39.00;;;19.88;;
47960;SDS011;33721;48.852;9.936;2023-08-30T03:32:03;33.45;;;20.23;;
47960;SDS011;33721;48.852;9.936;2023-08-30T03:34:29;35.22;;;20.40;;
47960;SDS011;33721;48.852;9.936;2023-08-30T03:36:55;36.78;;;21.10;;
47960;SDS011;33721;48.852;9.936;2023-08-30T03:39:21;37.30;;;21.42;;
47960;SDS011;33721;48.852;9.936;2023-08-30T03:41:47;36.00;;;20.92;;
47960;SDS011;33721;48.852;9.936;2023-08-30T03:44:13;39.63;;;20.92;;
47960;SDS011;33721;48.852;9.936;2023-08-30T03:46:38;35.42;;;20.35;;
47960;SDS011;33721;48.852;9.936;2023-08-30T03:49:04;36.05;;;20.63;;
47960;SDS011;33721;48.852;9.936;2023-08-30T03:51:29;37.05;;;20.77;;
47960;SDS011;33721;48.852;9.936;2023-08-30T03:53:55;43.22;;;22.50;;
47960;SDS011;33721;48.852;9.936;2023-08-30T03:56:23;41.80;;;22.67;;
47960;SDS011;33721;48.852;9.936;2023-08-30T03:58:50;39.90;;;20.88;;
47960;SDS011;33721;48.852;9.936;2023-08-30T04:01:15;38.38;;;21.23;;
47960;SDS011;33721;48.852;9.936;2023-08-30T04:03:41;37.33;;;20.65;;
47960;SDS011;33721;48.852;9.936;2023-08-30T04:06:06;37.30;;;20.92;;
47960;SDS011;33721;48.852;9.936;2023-08-30T04:08:32;38.33;;;20.98;;
47960;SDS011;33721;48.852;9.936;2023-08-30T04:10:58;34.92;;;21.33;;
47960;SDS011;33721;48.852;9.936;2023-08-30T04:13:23;35.08;;;20.50;;
47960;SDS011;33721;48.852;9.936;2023-08-30T04:15:49;34.85;;;20.00;;
47960;SDS011;33721;48.852;9.936;2023-08-30T04:18:16;35.95;;;20.88;;
47960;SDS011;33721;48.852;9.936;2023-08-30T04:20:45;40.42;;;21.75;;
47960;SDS011;33721;48.852;9.936;2023-08-30T04:23:12;171.15;;;19.95;;
47960;SDS011;33721;48.852;9.936;2023-08-30T04:25:38;92.90;;;18.50;;
47960;SDS011;33721;48.852;9.936;2023-08-30T04:28:03;35.80;;;17.95;;
47960;SDS011;33721;48.852;9.936;2023-08-30T04:30:29;34.60;;;18.95;;
47960;SDS011;33721;48.852;9.936;2023-08-30T04:32:55;35.58;;;18.83;;
47960;SDS011;33721;48.852;9.936;2023-08-30T04:35:21;35.63;;;20.25;;
47960;SDS011;33721;48.852;9.936;2023-08-30T04:37:46;32.75;;;19.52;;
47960;SDS011;33721;48.852;9.936;2023-08-30T04:40:13;36.22;;;19.80;;
47960;SDS011;33721;48.852;9.936;2023-08-30T04:42:39;34.00;;;19.88;;
47960;SDS011;33721;48.852;9.936;2023-08-30T04:45:05;35.45;;;19.33;;
47960;SDS011;33721;48.852;9.936;2023-08-30T04:47:32;42.33;;;21.75;;
47960;SDS011;33721;48.852;9.936;2023-08-30T04:49:58;36.22;;;20.90;;
47960;SDS011;33721;48.852;9.936;2023-08-30T04:52:24;36.03;;;21.40;;
47960;SDS011;33721;48.852;9.936;2023-08-30T04:54:50;36.28;;;20.25;;
47960;SDS011;33721;48.852;9.936;2023-08-30T04:57:16;51.53;;;23.40;;
47960;SDS011;33721;48.852;9.936;2023-08-30T04:59:43;39.58;;;21.50;;
47960;SDS011;33721;48.852;9.936;2023-08-30T05:02:09;36.28;;;21.15;;
47960;SDS011;33721;48.852;9.936;2023-08-30T05:04:35;34.10;;;20.10;;
47960;SDS011;33721;48.852;9.936;2023-08-30T05:07:01;31.80;;;18.38;;
47960;SDS011;33721;48.852;9.936;2023-08-30T05:09:28;34.17;;;19.23;;
47960;SDS011;33721;48.852;9.936;2023-08-30T05:11:55;38.47;;;21.23;;
47960;SDS011;33721;48.852;9.936;2023-08-30T05:14:20;37.38;;;21.92;;
47960;SDS011;33721;48.852;9.936;2023-08-30T05:16:46;40.20;;;22.58;;
47960;SDS011;33721;48.852;9.936;2023-08-30T05:19:11;39.60;;;21.33;;
47960;SDS011;33721;48.852;9.936;2023-08-30T05:21:37;41.35;;;21.88;;
47960;SDS011;33721;48.852;9.936;2023-08-30T05:24:03;41.13;;;21.45;;
47960;SDS011;33721;48.852;9.936;2023-08-30T05:26:32;33.35;;;20.05;;
47960;SDS011;33721;48.852;9.936;2023-08-30T05:28:57;31.80;;;17.88;;
47960;SDS011;33721;48.852;9.936;2023-08-30T05:31:23;36.50;;;19.35;;
47960;SDS011;33721;48.852;9.936;2023-08-30T05:33:49;30.25;;;17.52;;
47960;SDS011;33721;48.852;9.936;2023-08-30T05:36:14;32.40;;;18.83;;
47960;SDS011;33721;48.852;9.936;2023-08-30T05:38:40;32.03;;;18.85;;
47960;SDS011;33721;48.852;9.936;2023-08-30T05:41:06;34.60;;;19.05;;
47960;SDS011;33721;48.852;9.936;2023-08-30T05:43:32;38.30;;;18.85;;
47960;SDS011;33721;48.852;9.936;2023-08-30T05:45:58;29.90;;;17.92;;
47960;SDS011;33721;48.852;9.936;2023-08-30T05:48:27;34.50;;;20.10;;
47960;SDS011;33721;48.852;9.936;2023-08-30T05:50:57;29.42;;;18.05;;
47960;SDS011;33721;48.852;9.936;2023-08-30T05:53:23;34.85;;;19.60;;
47960;SDS011;33721;48.852;9.936;2023-08-30T05:55:49;36.25;;;19.58;;
47960;SDS011;33721;48.852;9.936;2023-08-30T05:58:14;36.42;;;19.55;;
47960;SDS011;33721;48.852;9.936;2023-08-30T06:00:41;31.50;;;18.60;;
47960;SDS011;33721;48.852;9.936;2023-08-30T06:03:06;39.70;;;19.90;;
47960;SDS011;33721;48.852;9.936;2023-08-30T06:05:33;34.50;;;19.75;;
47960;SDS011;33721;48.852;9.936;2023-08-30T06:07:59;32.75;;;19.00;;
47960;SDS011;33721;48.852;9.936;2023-08-30T06:10:25;31.85;;;19.17;;
47960;SDS011;33721;48.852;9.936;2023-08-30T06:12:52;32.78;;;19.45;;
47960;SDS011;33721;48.852;9.936;2023-08-30T06:15:17;30.10;;;18.55;;
47960;SDS011;33721;48.852;9.936;2023-08-30T06:17:43;34.40;;;18.60;;
47960;SDS011;33721;48.852;9.936;2023-08-30T06:20:08;30.88;;;18.33;;
47960;SDS011;33721;48.852;9.936;2023-08-30T06:22:34;38.08;;;20.00;;
47960;SDS011;33721;48.852;9.936;2023-08-30T06:25:00;32.45;;;18.10;;
47960;SDS011;33721;48.852;9.936;2023-08-30T06:27:26;33.88;;;19.77;;
47960;SDS011;33721;48.852;9.936;2023-08-30T06:29:51;36.53;;;19.85;;
47960;SDS011;33721;48.852;9.936;2023-08-30T06:32:17;34.45;;;19.90;;
47960;SDS011;33721;48.852;9.936;2023-08-30T06:34:43;35.75;;;20.80;;
47960;SDS011;33721;48.852;9.936;2023-08-30T06:37:08;34.80;;;20.50;;
47960;SDS011;33721;48.852;9.936;2023-08-30T06:39:34;35.47;;;20.42;;
47960;SDS011;33721;48.852;9.936;2023-08-30T06:42:01;35.20;;;20.35;;
47960;SDS011;33721;48.852;9.936;2023-08-30T06:44:28;34.28;;;19.48;;
47960;SDS011;33721;48.852;9.936;2023-08-30T06:46:55;32.50;;;20.13;;
47960;SDS011;33721;48.852;9.936;2023-08-30T06:49:23;33.70;;;19.83;;
47960;SDS011;33721;48.852;9.936;2023-08-30T06:51:49;32.67;;;19.58;;
47960;SDS011;33721;48.852;9.936;2023-08-30T06:54:15;32.85;;;19.25;;
47960;SDS011;33721;48.852;9.936;2023-08-30T06:56:41;33.38;;;19.30;;
47960;SDS011;33721;48.852;9.936;2023-08-30T06:59:10;33.65;;;19.70;;
47960;SDS011;33721;48.852;9.936;2023-08-30T07:01:36;36.78;;;18.67;;
47960;SDS011;33721;48.852;9.936;2023-08-30T07:04:01;30.52;;;18.33;;
47960;SDS011;33721;48.852;9.936;2023-08-30T07:06:27;30.83;;;18.73;;
47960;SDS011;33721;48.852;9.936;2023-08-30T07:08:55;31.20;;;18.40;;
47960;SDS011;33721;48.852;9.936;2023-08-30T07:11:21;29.13;;;17.70;;
47960;SDS011;33721;48.852;9.936;2023-08-30T07:13:47;27.83;;;16.02;;
47960;SDS011;33721;48.852;9.936;2023-08-30T07:16:12;27.70;;;16.33;;
47960;SDS011;33721;48.852;9.936;2023-08-30T07:18:38;28.48;;;17.15;;
47960;SDS011;33721;48.852;9.936;2023-08-30T07:21:04;22.58;;;14.40;;
47960;SDS011;33721;48.852;9.936;2023-08-30T07:23:30;23.67;;;15.38;;
47960;SDS011;33721;48.852;9.936;2023-08-30T07:25:56;23.92;;;15.05;;
47960;SDS011;33721;48.852;9.936;2023-08-30T07:28:21;23.27;;;15.07;;
47960;SDS011;33721;48.852;9.936;2023-08-30T07:30:47;24.55;;;14.93;;
47960;SDS011;33721;48.852;9.936;2023-08-30T07:33:12;24.65;;;15.73;;
47960;SDS011;33721;48.852;9.936;2023-08-30T07:35:38;23.50;;;14.57;;
47960;SDS011;33721;48.852;9.936;2023-08-30T07:38:05;23.25;;;14.18;;
47960;SDS011;33721;48.852;9.936;2023-08-30T07:40:31;30.35;;;14.45;;
47960;SDS011;33721;48.852;9.936;2023-08-30T07:42:56;23.20;;;13.98;;
47960;SDS011;33721;48.852;9.936;2023-08-30T07:45:22;25.52;;;14.15;;
47960;SDS011;33721;48.852;9.936;2023-08-30T07:47:48;22.02;;;13.32;;
47960;SDS011;33721;48.852;9.936;2023-08-30T07:50:13;20.52;;;12.80;;
47960;SDS011;33721;48.852;9.936;2023-08-30T07:52:39;25.15;;;13.73;;
47960;SDS011;33721;48.852;9.936;2023-08-30T07:55:04;22.83;;;12.80;;
47960;SDS011;33721;48.852;9.936;2023-08-30T07:57:30;22.15;;;13.95;;
47960;SDS011;33721;48.852;9.936;2023-08-30T07:59:56;22.38;;;12.45;;
47960;SDS011;33721;48.852;9.936;2023-08-30T08:02:21;27.25;;;13.05;;
47960;SDS011;33721;48.852;9.936;2023-08-30T08:04:50;20.95;;;12.40;;
47960;SDS011;33721;48.852;9.936;2023-08-30T08:07:17;19.43;;;12.37;;
47960;SDS011;33721;48.852;9.936;2023-08-30T08:09:42;17.60;;;11.82;;
47960;SDS011;33721;48.852;9.936;2023-08-30T08:12:08;22.23;;;12.95;;
47960;SDS011;33721;48.852;9.936;2023-08-30T08:14:34;23.42;;;13.07;;
47960;SDS011;33721;48.852;9.936;2023-08-30T08:16:59;20.95;;;12.95;;
47960;SDS011;33721;48.852;9.936;2023-08-30T08:19:25;18.83;;;12.25;;
47960;SDS011;33721;48.852;9.936;2023-08-30T08:21:51;18.52;;;12.15;;
47960;SDS011;33721;48.852;9.936;2023-08-30T08:24:18;20.77;;;13.32;;
47960;SDS011;33721;48.852;9.936;2023-08-30T08:26:44;21.23;;;12.73;;
47960;SDS011;33721;48.852;9.936;2023-08-30T08:29:09;21.85;;;12.73;;
47960;SDS011;33721;48.852;9.936;2023-08-30T08:31:35;22.85;;;12.50;;
47960;SDS011;33721;48.852;9.936;2023-08-30T08:34:08;24.17;;;12.32;;
47960;SDS011;33721;48.852;9.936;2023-08-30T08:36:38;26.73;;;12.55;;
47960;SDS011;33721;48.852;9.936;2023-08-30T08:39:05;20.58;;;12.25;;
47960;SDS011;33721;48.852;9.936;2023-08-30T08:41:41;17.17;;;11.63;;
47960;SDS011;33721;48.852;9.936;2023-08-30T08:44:08;17.83;;;11.63;;
47960;SDS011;33721;48.852;9.936;2023-08-30T08:46:35;20.52;;;11.77;;
47960;SDS011;33721;48.852;9.936;2023-08-30T08:49:22;16.70;;;11.13;;
47960;SDS011;33721;48.852;9.936;2023-08-30T08:51:48;16.60;;;10.77;;
47960;SDS011;33721;48.852;9.936;2023-08-30T08:54:17;20.73;;;12.07;;
47960;SDS011;33721;48.852;9.936;2023-08-30T08:56:43;17.02;;;11.95;;
47960;SDS011;33721;48.852;9.936;2023-08-30T08:59:10;19.55;;;11.57;;
47960;SDS011;33721;48.852;9.936;2023-08-30T09:01:36;21.35;;;12.52;;
47960;SDS011;33721;48.852;9.936;2023-08-30T09:04:10;16.83;;;11.38;;
47960;SDS011;33721;48.852;9.936;2023-08-30T09:06:36;17.65;;;11.00;;
47960;SDS011;33721;48.852;9.936;2023-08-30T09:09:05;17.30;;;11.02;;
47960;SDS011;33721;48.852;9.936;2023-08-30T09:11:31;14.13;;;9.45;;
47960;SDS011;33721;48.852;9.936;2023-08-30T09:13:57;14.80;;;9.48;;
47960;SDS011;33721;48.852;9.936;2023-08-30T09:16:23;15.52;;;9.05;;
47960;SDS011;33721;48.852;9.936;2023-08-30T09:19:02;14.18;;;9.55;;
47960;SDS011;33721;48.852;9.936;2023-08-30T09:21:29;15.02;;;10.15;;
47960;SDS011;33721;48.852;9.936;2023-08-30T09:24:00;12.18;;;8.55;;
47960;SDS011;33721;48.852;9.936;2023-08-30T09:26:26;17.38;;;9.70;;
47960;SDS011;33721;48.852;9.936;2023-08-30T09:28:53;13.15;;;8.60;;
47960;SDS011;33721;48.852;9.936;2023-08-30T09:31:20;14.95;;;9.38;;
47960;SDS011;33721;48.852;9.936;2023-08-30T09:33:46;18.13;;;9.02;;
47960;SDS011;33721;48.852;9.936;2023-08-30T09:36:13;12.40;;;7.60;;
47960;SDS011;33721;48.852;9.936;2023-08-30T09:38:39;12.80;;;8.30;;
47960;SDS011;33721;48.852;9.936;2023-08-30T09:41:05;12.52;;;8.68;;
47960;SDS011;33721;48.852;9.936;2023-08-30T09:43:33;13.73;;;9.10;;
47960;SDS011;33721;48.852;9.936;2023-08-30T09:46:03;13.85;;;9.10;;
47960;SDS011;33721;48.852;9.936;2023-08-30T09:48:30;12.50;;;8.20;;
47960;SDS011;33721;48.852;9.936;2023-08-30T09:50:59;14.80;;;8.68;;
47960;SDS011;33721;48.852;9.936;2023-08-30T09:53:32;13.10;;;8.98;;
47960;SDS011;33721;48.852;9.936;2023-08-30T09:56:10;16.65;;;8.82;;
47960;SDS011;33721;48.852;9.936;2023-08-30T09:58:38;12.85;;;8.15;;
47960;SDS011;33721;48.852;9.936;2023-08-30T10:01:05;14.10;;;8.55;;
47960;SDS011;33721;48.852;9.936;2023-08-30T10:03:32;10.82;;;7.65;;
47960;SDS011;33721;48.852;9.936;2023-08-30T10:05:59;13.60;;;7.57;;
47960;SDS011;33721;48.852;9.936;2023-08-30T10:08:30;12.20;;;7.90;;
47960;SDS011;33721;48.852;9.936;2023-08-30T10:10:58;12.52;;;7.40;;
47960;SDS011;33721;48.852;9.936;2023-08-30T10:13:25;10.55;;;7.03;;
47960;SDS011;33721;48.852;9.936;2023-08-30T10:15:52;11.05;;;7.43;;
47960;SDS011;33721;48.852;9.936;2023-08-30T10:18:23;11.02;;;7.38;;
47960;SDS011;33721;48.852;9.936;2023-08-30T10:20:54;16.27;;;7.90;;
47960;SDS011;33721;48.852;9.936;2023-08-30T10:23:20;12.10;;;7.10;;
47960;SDS011;33721;48.852;9.936;2023-08-30T10:25:48;12.88;;;8.10;;
47960;SDS011;33721;48.852;9.936;2023-08-30T10:28:19;18.10;;;7.22;;
47960;SDS011;33721;48.852;9.936;2023-08-30T10:30:46;14.98;;;7.35;;
47960;SDS011;33721;48.852;9.936;2023-08-30T10:33:15;10.45;;;7.38;;
47960;SDS011;33721;48.852;9.936;2023-08-30T10:35:48;10.23;;;6.80;;
47960;SDS011;33721;48.852;9.936;2023-08-30T10:38:26;9.85;;;6.97;;
47960;SDS011;33721;48.852;9.936;2023-08-30T10:40:54;8.73;;;6.03;;
47960;SDS011;33721;48.852;9.936;2023-08-30T10:43:29;8.45;;;6.25;;
47960;SDS011;33721;48.852;9.936;2023-08-30T10:46:03;8.73;;;6.55;;
47960;SDS011;33721;48.852;9.936;2023-08-30T10:48:39;9.30;;;6.50;;
47960;SDS011;33721;48.852;9.936;2023-08-30T10:54:14;8.30;;;5.28;;
47960;SDS011;33721;48.852;9.936;2023-08-30T10:56:56;8.27;;;5.50;;
47960;SDS011;33721;48.852;9.936;2023-08-30T10:59:26;9.10;;;6.07;;
47960;SDS011;33721;48.852;9.936;2023-08-30T11:01:54;9.32;;;5.97;;
47960;SDS011;33721;48.852;9.936;2023-08-30T11:04:23;6.85;;;4.75;;
47960;SDS011;33721;48.852;9.936;2023-08-30T11:06:49;6.97;;;4.72;;
47960;SDS011;33721;48.852;9.936;2023-08-30T11:09:16;8.85;;;5.55;;
47960;SDS011;33721;48.852;9.936;2023-08-30T11:11:44;9.98;;;5.47;;
47960;SDS011;33721;48.852;9.936;2023-08-30T11:14:11;6.05;;;4.13;;
47960;SDS011;33721;48.852;9.936;2023-08-30T11:16:38;6.80;;;4.55;;
47960;SDS011;33721;48.852;9.936;2023-08-30T11:19:08;6.57;;;4.57;;
47960;SDS011;33721;48.852;9.936;2023-08-30T11:21:36;5.60;;;3.97;;
47960;SDS011;33721;48.852;9.936;2023-08-30T11:24:03;7.25;;;4.78;;
47960;SDS011;33721;48.852;9.936;2023-08-30T11:26:30;5.30;;;4.18;;
47960;SDS011;33721;48.852;9.936;2023-08-30T11:28:55;5.57;;;3.17;;
47960;SDS011;33721;48.852;9.936;2023-08-30T11:31:22;5.22;;;3.10;;
47960;SDS011;33721;48.852;9.936;2023-08-30T11:36:20;4.60;;;2.90;;
47960;SDS011;33721;48.852;9.936;2023-08-30T11:38:47;5.20;;;3.08;;
47960;SDS011;33721;48.852;9.936;2023-08-30T11:41:16;3.53;;;2.60;;
47960;SDS011;33721;48.852;9.936;2023-08-30T11:43:45;6.95;;;2.70;;
47960;SDS011;33721;48.852;9.936;2023-08-30T11:46:12;5.63;;;3.28;;
47960;SDS011;33721;48.852;9.936;2023-08-30T11:48:38;5.88;;;3.20;;
47960;SDS011;33721;48.852;9.936;2023-08-30T11:51:05;6.32;;;3.08;;
47960;SDS011;33721;48.852;9.936;2023-08-30T11:53:32;5.30;;;3.17;;
47960;SDS011;33721;48.852;9.936;2023-08-30T11:55:58;4.22;;;3.65;;
47960;SDS011;33721;48.852;9.936;2023-08-30T11:58:24;6.45;;;3.95;;
47960;SDS011;33721;48.852;9.936;2023-08-30T12:00:53;4.93;;;3.50;;
47960;SDS011;33721;48.852;9.936;2023-08-30T12:03:20;4.43;;;3.45;;
47960;SDS011;33721;48.852;9.936;2023-08-30T12:05:46;4.55;;;2.97;;
47960;SDS011;33721;48.852;9.936;2023-08-30T12:08:29;6.55;;;3.38;;
47960;SDS011;33721;48.852;9.936;2023-08-30T12:10:56;4.75;;;3.33;;
47960;SDS011;33721;48.852;9.936;2023-08-30T12:13:26;8.18;;;4.00;;
47960;SDS011;33721;48.852;9.936;2023-08-30T12:15:54;7.22;;;3.60;;
47960;SDS011;33721;48.852;9.936;2023-08-30T12:18:21;8.07;;;4.70;;
47960;SDS011;33721;48.852;9.936;2023-08-30T12:20:53;5.00;;;3.35;;
47960;SDS011;33721;48.852;9.936;2023-08-30T12:23:23;5.70;;;3.83;;
47960;SDS011;33721;48.852;9.936;2023-08-30T12:26:06;4.72;;;3.20;;
47960;SDS011;33721;48.852;9.936;2023-08-30T12:28:37;6.25;;;3.10;;
47960;SDS011;33721;48.852;9.936;2023-08-30T12:31:05;4.38;;;3.20;;
47960;SDS011;33721;48.852;9.936;2023-08-30T12:33:34;4.72;;;3.33;;
47960;SDS011;33721;48.852;9.936;2023-08-30T12:36:02;5.88;;;3.67;;
47960;SDS011;33721;48.852;9.936;2023-08-30T12:38:29;3.92;;;3.20;;
47960;SDS011;33721;48.852;9.936;2023-08-30T12:40:55;6.95;;;2.88;;
47960;SDS011;33721;48.852;9.936;2023-08-30T12:43:22;5.43;;;3.22;;
47960;SDS011;33721;48.852;9.936;2023-08-30T12:45:48;5.00;;;3.03;;
47960;SDS011;33721;48.852;9.936;2023-08-30T12:48:15;4.68;;;3.35;;
47960;SDS011;33721;48.852;9.936;2023-08-30T12:50:48;8.57;;;3.30;;
47960;SDS011;33721;48.852;9.936;2023-08-30T12:53:14;4.45;;;2.78;;
47960;SDS011;33721;48.852;9.936;2023-08-30T12:55:43;5.97;;;3.15;;
47960;SDS011;33721;48.852;9.936;2023-08-30T12:58:09;4.72;;;2.60;;
47960;SDS011;33721;48.852;9.936;2023-08-30T13:00:36;4.45;;;2.75;;
47960;SDS011;33721;48.852;9.936;2023-08-30T13:03:02;3.38;;;2.53;;
47960;SDS011;33721;48.852;9.936;2023-08-30T13:05:31;4.22;;;2.50;;
47960;SDS011;33721;48.852;9.936;2023-08-30T13:07:58;3.78;;;2.95;;
47960;SDS011;33721;48.852;9.936;2023-08-30T13:10:24;3.88;;;2.33;;
47960;SDS011;33721;48.852;9.936;2023-08-30T13:12:50;3.00;;;2.10;;
47960;SDS011;33721;48.852;9.936;2023-08-30T13:15:15;2.92;;;2.30;;
47960;SDS011;33721;48.852;9.936;2023-08-30T13:17:41;5.05;;;2.70;;
47960;SDS011;33721;48.852;9.936;2023-08-30T13:20:07;3.78;;;2.30;;
47960;SDS011;33721;48.852;9.936;2023-08-30T13:22:33;3.92;;;1.80;;
47960;SDS011;33721;48.852;9.936;2023-08-30T13:24:59;2.40;;;2.00;;
47960;SDS011;33721;48.852;9.936;2023-08-30T13:27:24;3.67;;;2.45;;
47960;SDS011;33721;48.852;9.936;2023-08-30T13:29:50;4.22;;;3.03;;
47960;SDS011;33721;48.852;9.936;2023-08-30T13:32:16;5.13;;;2.20;;
47960;SDS011;33721;48.852;9.936;2023-08-30T13:34:41;2.83;;;2.28;;
47960;SDS011;33721;48.852;9.936;2023-08-30T13:37:11;4.78;;;2.70;;
47960;SDS011;33721;48.852;9.936;2023-08-30T13:39:37;4.50;;;2.38;;
47960;SDS011;33721;48.852;9.936;2023-08-30T13:42:03;3.55;;;2.70;;
47960;SDS011;33721;48.852;9.936;2023-08-30T13:44:29;3.13;;;2.45;;
47960;SDS011;33721;48.852;9.936;2023-08-30T13:46:55;3.00;;;2.60;;
47960;SDS011;33721;48.852;9.936;2023-08-30T13:49:20;4.50;;;2.92;;
47960;SDS011;33721;48.852;9.936;2023-08-30T13:51:46;5.57;;;2.55;;
47960;SDS011;33721;48.852;9.936;2023-08-30T13:54:12;5.85;;;2.90;;
47960;SDS011;33721;48.852;9.936;2023-08-30T13:56:37;4.57;;;3.40;;
47960;SDS011;33721;48.852;9.936;2023-08-30T13:59:03;7.05;;;3.10;;
47960;SDS011;33721;48.852;9.936;2023-08-30T14:01:31;7.60;;;3.10;;
47960;SDS011;33721;48.852;9.936;2023-08-30T14:03:57;7.30;;;3.00;;
47960;SDS011;33721;48.852;9.936;2023-08-30T14:06:23;6.13;;;3.28;;
47960;SDS011;33721;48.852;9.936;2023-08-30T14:08:48;5.72;;;3.13;;
47960;SDS011;33721;48.852;9.936;2023-08-30T14:11:14;4.70;;;3.38;;
47960;SDS011;33721;48.852;9.936;2023-08-30T14:13:40;4.78;;;3.45;;
47960;SDS011;33721;48.852;9.936;2023-08-30T14:16:05;12.85;;;4.13;;
47960;SDS011;33721;48.852;9.936;2023-08-30T14:18:33;6.20;;;3.13;;
47960;SDS011;33721;48.852;9.936;2023-08-30T14:20:59;5.80;;;3.35;;
47960;SDS011;33721;48.852;9.936;2023-08-30T14:23:26;3.85;;;3.33;;
47960;SDS011;33721;48.852;9.936;2023-08-30T14:26:05;5.63;;;3.42;;
47960;SDS011;33721;48.852;9.936;2023-08-30T14:28:35;5.60;;;3.90;;
47960;SDS011;33721;48.852;9.936;2023-08-30T14:31:02;4.85;;;3.20;;
47960;SDS011;33721;48.852;9.936;2023-08-30T14:33:29;7.47;;;3.53;;